Time;durP1;ratioP1;P1;durP2;ratioP2;P2;SDS_P1;SDS_P2;PMS_P1;PMS_P2;Temp;Humidity;BMP_temperature;BMP_pressure;BME280_temperature;BME280_humidity;BME280_pressure;Samples;Min_cycle;Max_cycle;Signal;HPM_P1;HPM_P2
2023/03/10 00:01:48;;;;;;;16.75;8.73;;;2.40;99.90;;;;;;6127000;23;20025;-88
2023/03/10 00:04:14;;;;;;;15.05;7.15;;;2.40;99.90;;;;;;6127556;23;20028;-87
2023/03/10 00:06:40;;;;;;;16.13;7.75;;;2.40;99.90;;;;;;6151780;23;20017;-88
2023/03/10 00:09:07;;;;;;;16.58;7.63;;;2.40;99.90;;;;;;6150940;23;20017;-88
2023/03/10 00:11:32;;;;;;;14.68;7.00;;;2.40;99.90;;;;;;6152209;23;20009;-87
2023/03/10 00:13:58;;;;;;;13.82;6.55;;;2.40;99.90;;;;;;6126853;23;20080;-87
2023/03/10 00:16:26;;;;;;;12.93;7.07;;;2.40;99.90;;;;;;6151949;23;20457;-87
2023/03/10 00:18:53;;;;;;;15.85;7.63;;;2.40;99.90;;;;;;6127209;23;20385;-87
2023/03/10 00:21:24;;;;;;;15.88;7.50;;;2.40;99.90;;;;;;6151075;23;20109;-87
2023/03/10 00:23:51;;;;;;;13.68;7.25;;;2.40;99.90;;;;;;6152091;23;20014;-87
2023/03/10 00:26:18;;;;;;;13.05;6.20;;;2.40;99.90;;;;;;6151837;23;20353;-87
2023/03/10 00:28:44;;;;;;;14.02;6.30;;;2.40;99.90;;;;;;6150879;23;20068;-88
2023/03/10 00:31:12;;;;;;;14.05;6.57;;;2.40;99.90;;;;;;6152137;23;20009;-87
2023/03/10 00:33:38;;;;;;;13.32;6.80;;;2.40;99.90;;;;;;6151463;23;20017;-87
2023/03/10 00:36:06;;;;;;;14.13;6.55;;;2.40;99.90;;;;;;6151674;23;20041;-88
2023/03/10 00:38:32;;;;;;;13.65;6.50;;;2.40;99.90;;;;;;6151596;23;20021;-87
2023/03/10 00:41:03;;;;;;;14.20;6.63;;;2.40;99.90;;;;;;6126584;23;20025;-88
2023/03/10 00:43:29;;;;;;;13.45;6.85;;;2.40;99.90;;;;;;6149986;23;20048;-87
2023/03/10 00:45:55;;;;;;;13.88;6.70;;;2.40;99.90;;;;;;6150066;23;20065;-87
2023/03/10 00:48:21;;;;;;;14.52;6.63;;;2.40;99.90;;;;;;6151131;23;20033;-87
2023/03/10 00:50:47;;;;;;;12.32;6.22;;;2.40;99.90;;;;;;6151331;23;20483;-87
2023/03/10 00:53:13;;;;;;;14.32;8.00;;;2.40;99.90;;;;;;6126414;23;20025;-87
2023/03/10 00:55:39;;;;;;;14.80;7.97;;;2.50;99.90;;;;;;6151280;23;20044;-87
2023/03/10 00:58:05;;;;;;;13.32;6.30;;;2.50;99.90;;;;;;6150589;23;20501;-87
2023/03/10 01:00:30;;;;;;;13.80;6.43;;;2.50;99.90;;;;;;6126945;23;20070;-87
2023/03/10 01:02:57;;;;;;;13.23;7.18;;;2.40;99.90;;;;;;6150985;23;20125;-87
2023/03/10 01:05:23;;;;;;;14.18;6.20;;;2.50;99.90;;;;;;6150053;23;20044;-87
2023/03/10 01:07:49;;;;;;;13.57;6.82;;;2.50;99.90;;;;;;6151080;23;20017;-87
2023/03/10 01:10:15;;;;;;;12.85;6.20;;;2.50;99.90;;;;;;6151389;23;20076;-87
2023/03/10 01:12:40;;;;;;;12.73;6.78;;;2.40;99.90;;;;;;6127111;23;20036;-87
2023/03/10 01:15:07;;;;;;;12.70;6.47;;;2.50;99.90;;;;;;6127166;23;20032;-88
2023/03/10 01:17:33;;;;;;;11.50;5.65;;;2.50;99.90;;;;;;6150478;23;20828;-87
2023/03/10 01:19:58;;;;;;;13.45;6.22;;;2.40;99.90;;;;;;6127009;23;20028;-88
2023/03/10 01:22:24;;;;;;;13.02;6.03;;;2.50;99.90;;;;;;6152788;23;20096;-87
2023/03/10 01:24:50;;;;;;;12.90;6.18;;;2.50;99.90;;;;;;6154055;23;20021;-88
2023/03/10 01:27:15;;;;;;;11.48;5.72;;;2.50;99.90;;;;;;6128308;23;20032;-88
2023/03/10 01:29:41;;;;;;;11.80;5.55;;;2.50;99.90;;;;;;6153125;23;20017;-88
2023/03/10 01:32:07;;;;;;;12.13;5.75;;;2.40;99.90;;;;;;6129058;23;20018;-88
2023/03/10 01:34:33;;;;;;;12.65;6.25;;;2.50;99.90;;;;;;6152410;23;20100;-88
2023/03/10 01:36:58;;;;;;;12.77;6.55;;;2.40;99.90;;;;;;6153647;23;20053;-88
2023/03/10 01:39:24;;;;;;;10.98;5.07;;;2.40;99.90;;;;;;6152511;23;20080;-87
2023/03/10 01:41:49;;;;;;;11.20;5.63;;;2.40;99.90;;;;;;6153628;23;20013;-87
2023/03/10 01:44:18;;;;;;;12.88;6.57;;;2.40;99.90;;;;;;6153157;23;20017;-88
2023/03/10 01:46:54;;;;;;;12.18;5.50;;;2.40;99.90;;;;;;6153406;23;20014;-87
2023/03/10 01:49:22;;;;;;;11.52;5.65;;;2.40;99.90;;;;;;6152301;23;20028;-88
2023/03/10 01:51:54;;;;;;;12.73;6.35;;;2.40;99.90;;;;;;6152442;23;20074;-88
2023/03/10 01:54:27;;;;;;;10.77;4.88;;;2.40;99.90;;;;;;6153068;23;20106;-88
2023/03/10 01:56:53;;;;;;;;;;;2.50;99.90;;;;;;6153731;23;20024;-88
2023/03/10 01:59:20;;;;;;;12.40;5.95;;;2.50;99.90;;;;;;6152830;23;20379;-88
2023/03/10 02:01:46;;;;;;;11.02;5.43;;;2.40;99.90;;;;;;6153449;23;20017;-88
2023/03/10 02:04:22;;;;;;;11.95;5.65;;;2.40;99.90;;;;;;6152399;23;20025;-88
2023/03/10 02:06:49;;;;;;;12.30;5.75;;;2.50;99.90;;;;;;6127495;23;20353;-88
2023/03/10 02:09:17;;;;;;;11.75;5.65;;;2.40;99.90;;;;;;6152295;23;20010;-88
2023/03/10 02:11:45;;;;;;;12.23;6.05;;;2.40;99.90;;;;;;6128891;23;20035;-88
2023/03/10 02:14:11;;;;;;;13.25;6.70;;;2.40;99.90;;;;;;6153007;23;20056;-88
2023/03/10 02:16:37;;;;;;;11.80;6.13;;;2.40;99.90;;;;;;6152798;23;20021;-88
2023/03/10 02:19:08;;;;;;;12.65;6.32;;;2.40;99.90;;;;;;6152831;23;20021;-88
2023/03/10 02:21:48;;;;;;;13.20;6.05;;;2.40;99.90;;;;;;6127771;23;20100;-88
2023/03/10 02:24:38;;;;;;;13.10;6.30;;;2.40;99.90;;;;;;6153233;23;20500;-88
2023/03/10 02:27:17;;;;;;;12.48;5.97;;;2.40;99.90;;;;;;6152934;23;20060;-88
2023/03/10 02:29:48;;;;;;;13.20;6.35;;;2.40;99.90;;;;;;6152497;23;20009;-88
2023/03/10 02:32:15;;;;;;;14.18;6.70;;;2.40;99.90;;;;;;6153075;23;20017;-88
2023/03/10 02:34:41;;;;;;;12.75;6.68;;;2.40;99.90;;;;;;6152458;23;20017;-88
2023/03/10 02:37:16;;;;;;;14.18;6.65;;;2.40;99.90;;;;;;6128433;23;20357;-88
2023/03/10 02:39:41;;;;;;;11.43;5.32;;;2.40;99.90;;;;;;6127738;23;20017;-88
2023/03/10 02:42:10;;;;;;;11.52;6.05;;;2.40;99.90;;;;;;6152778;23;20338;-88
2023/03/10 02:44:35;;;;;;;12.82;6.18;;;2.40;99.90;;;;;;6152215;23;20405;-88
2023/03/10 02:47:01;;;;;;;13.05;5.82;;;2.40;99.90;;;;;;6152744;23;20021;-88
2023/03/10 02:49:27;;;;;;;12.13;6.57;;;2.40;99.90;;;;;;6152122;23;20024;-88
2023/03/10 02:51:54;;;;;;;12.88;6.15;;;2.40;99.90;;;;;;6127813;23;20021;-88
2023/03/10 02:54:19;;;;;;;13.48;6.60;;;2.30;99.90;;;;;;6152766;23;20056;-88
2023/03/10 02:56:45;;;;;;;12.63;6.38;;;2.40;99.90;;;;;;6127778;23;20416;-88
2023/03/10 02:59:11;;;;;;;11.02;5.00;;;2.40;99.90;;;;;;6127479;23;20014;-87
2023/03/10 03:01:37;;;;;;;12.75;5.95;;;2.30;99.90;;;;;;6127808;23;20072;-87
2023/03/10 03:04:03;;;;;;;11.80;5.78;;;2.30;99.90;;;;;;6152228;23;20401;-88
2023/03/10 03:06:29;;;;;;;12.55;6.07;;;2.30;99.90;;;;;;6152362;23;20014;-88
2023/03/10 03:08:54;;;;;;;10.57;5.25;;;2.30;99.90;;;;;;6127142;23;20052;-88
2023/03/10 03:11:20;;;;;;;12.27;5.90;;;2.30;99.90;;;;;;6127976;23;20017;-88
2023/03/10 03:13:46;;;;;;;12.68;5.60;;;2.30;99.90;;;;;;6151677;23;20483;-88
2023/03/10 03:16:12;;;;;;;12.73;5.75;;;2.30;99.90;;;;;;6127654;23;20018;-88
2023/03/10 03:18:38;;;;;;;12.80;6.15;;;2.30;99.90;;;;;;6151978;23;20014;-87
2023/03/10 03:21:10;;;;;;;13.18;5.85;;;2.30;99.90;;;;;;6151851;23;20013;-88
2023/03/10 03:23:36;;;;;;;11.20;5.43;;;2.30;99.90;;;;;;6152463;23;20547;-88
2023/03/10 03:26:03;;;;;;;12.73;5.78;;;2.30;99.90;;;;;;6152213;23;20021;-87
2023/03/10 03:28:28;;;;;;;10.75;5.07;;;2.30;99.90;;;;;;6151987;23;20480;-87
2023/03/10 03:30:54;;;;;;;10.57;5.03;;;2.30;99.90;;;;;;6151870;23;20018;-88
2023/03/10 03:33:20;;;;;;;11.88;5.72;;;2.30;99.90;;;;;;6127365;23;20457;-87
2023/03/10 03:35:46;;;;;;;10.90;5.55;;;2.30;99.90;;;;;;6152089;23;20353;-88
2023/03/10 03:38:11;;;;;;;10.75;5.22;;;2.30;99.90;;;;;;6151730;23;20469;-88
2023/03/10 03:40:38;;;;;;;11.15;5.93;;;2.30;99.90;;;;;;6127872;23;20017;-88
2023/03/10 03:43:04;;;;;;;10.60;6.00;;;2.30;99.90;;;;;;6126980;23;20010;-88
2023/03/10 03:45:31;;;;;;;11.13;5.75;;;2.30;99.90;;;;;;6127378;23;20144;-88
2023/03/10 03:47:57;;;;;;;11.32;5.25;;;2.30;99.90;;;;;;6151670;23;20020;-88
2023/03/10 03:50:24;;;;;;;12.35;6.57;;;2.30;99.90;;;;;;6127580;23;20541;-87
2023/03/10 03:52:50;;;;;;;13.02;5.40;;;2.30;99.90;;;;;;6152203;23;20014;-88
2023/03/10 03:55:17;;;;;;;13.45;5.97;;;2.30;99.90;;;;;;6151046;23;20053;-88
2023/03/10 03:57:44;;;;;;;12.57;6.30;;;2.30;99.90;;;;;;6151455;23;20520;-88
2023/03/10 04:00:14;;;;;;;12.05;6.10;;;2.30;99.90;;;;;;6125955;23;20032;-88
2023/03/10 04:02:40;;;;;;;11.95;6.18;;;2.30;99.90;;;;;;6152115;23;20021;-88
2023/03/10 04:05:06;;;;;;;14.00;6.70;;;2.30;99.90;;;;;;6151357;23;20052;-87
2023/03/10 04:07:32;;;;;;;13.52;6.40;;;2.30;99.90;;;;;;6150923;23;20041;-87
2023/03/10 04:09:57;;;;;;;14.80;6.50;;;2.30;99.90;;;;;;6151854;23;20049;-88
2023/03/10 04:12:25;;;;;;;14.80;7.50;;;2.30;99.90;;;;;;6151124;23;20509;-87
2023/03/10 04:14:51;;;;;;;15.23;7.97;;;2.30;99.90;;;;;;6153038;23;20021;-88
2023/03/10 04:17:17;;;;;;;15.02;8.02;;;2.40;99.90;;;;;;6127736;23;20076;-87
2023/03/10 04:19:42;;;;;;;15.93;7.85;;;2.40;99.90;;;;;;6127343;23;20024;-88
2023/03/10 04:22:08;;;;;;;15.90;8.48;;;2.30;99.90;;;;;;6152071;23;20021;-88
2023/03/10 04:24:36;;;;;;;14.25;7.72;;;2.40;99.90;;;;;;6127371;23;20022;-88
2023/03/10 04:27:01;;;;;;;14.18;8.18;;;2.40;99.90;;;;;;6127558;23;20006;-88
2023/03/10 04:29:27;;;;;;;13.90;7.57;;;2.40;99.90;;;;;;6150969;23;20063;-87
2023/03/10 04:31:53;;;;;;;13.55;6.90;;;2.40;99.90;;;;;;6151951;23;20068;-88
2023/03/10 04:34:18;;;;;;;14.43;7.75;;;2.40;99.90;;;;;;6151738;23;20057;-87
2023/03/10 04:36:44;;;;;;;13.80;7.18;;;2.40;99.90;;;;;;6126815;23;20028;-88
2023/03/10 04:39:09;;;;;;;14.05;6.97;;;2.40;99.90;;;;;;6150948;23;20101;-88
2023/03/10 04:41:36;;;;;;;13.05;6.40;;;2.40;99.90;;;;;;6151400;23;20060;-88
2023/03/10 04:44:02;;;;;;;12.63;6.13;;;2.40;99.90;;;;;;6151137;23;20358;-88
2023/03/10 04:46:30;;;;;;;14.27;7.03;;;2.40;99.90;;;;;;6151012;23;20041;-88
2023/03/10 04:48:56;;;;;;;14.45;6.97;;;2.40;99.90;;;;;;6126468;23;20101;-88
2023/03/10 04:51:22;;;;;;;13.20;6.68;;;2.40;99.90;;;;;;6151193;23;20056;-88
2023/03/10 04:53:48;;;;;;;11.98;5.82;;;2.40;99.90;;;;;;6127596;23;20013;-87
2023/03/10 04:56:13;;;;;;;12.90;6.45;;;2.40;99.90;;;;;;6153322;23;20485;-88
2023/03/10 04:58:39;;;;;;;13.73;7.18;;;2.40;99.90;;;;;;6128083;23;20053;-88
2023/03/10 05:01:10;;;;;;;11.77;5.60;;;2.40;99.90;;;;;;6153811;23;20022;-88
2023/03/10 05:03:35;;;;;;;12.68;6.53;;;2.40;99.90;;;;;;6128498;23;20024;-88
2023/03/10 05:06:01;;;;;;;12.30;6.00;;;2.30;99.90;;;;;;6127456;23;20013;-85
2023/03/10 05:08:27;;;;;;;12.23;5.57;;;2.40;99.90;;;;;;6152024;23;20457;-86
2023/03/10 05:10:53;;;;;;;11.38;5.68;;;2.30;99.90;;;;;;6152714;23;20017;-87
2023/03/10 05:13:18;;;;;;;11.43;5.60;;;2.40;99.90;;;;;;6152683;23;20014;-86
2023/03/10 05:15:44;;;;;;;11.55;5.40;;;2.40;99.90;;;;;;6127371;23;20342;-87
2023/03/10 05:18:11;;;;;;;11.18;5.45;;;2.30;99.90;;;;;;6152586;23;20091;-87
2023/03/10 05:20:37;;;;;;;10.82;4.55;;;2.40;99.90;;;;;;6152904;23;20079;-87
2023/03/10 05:23:03;;;;;;;11.90;5.15;;;2.40;99.90;;;;;;6152551;23;20017;-87
2023/03/10 05:25:29;;;;;;;12.07;6.05;;;2.30;99.90;;;;;;6128295;23;20105;-87
2023/03/10 05:27:54;;;;;;;11.02;5.25;;;2.40;99.90;;;;;;6151165;23;20080;-87
2023/03/10 05:30:20;;;;;;;11.55;6.00;;;2.30;99.90;;;;;;6152823;23;20553;-87
2023/03/10 05:32:45;;;;;;;12.40;5.18;;;2.40;99.90;;;;;;6152929;23;20097;-87
2023/03/10 05:35:12;;;;;;;11.48;5.03;;;2.40;99.90;;;;;;6152311;23;20353;-87
2023/03/10 05:37:39;;;;;;;11.15;4.90;;;2.30;99.90;;;;;;6127894;23;20029;-87
2023/03/10 05:40:11;;;;;;;10.93;4.40;;;2.40;99.90;;;;;;6128082;23;20017;-87
2023/03/10 05:42:37;;;;;;;10.27;4.30;;;2.40;99.90;;;;;;6153238;23;20291;-87
2023/03/10 05:45:04;;;;;;;10.10;4.60;;;2.40;99.90;;;;;;6153009;23;20516;-87
2023/03/10 05:47:30;;;;;;;10.35;4.72;;;2.40;99.90;;;;;;6152297;23;20013;-87
2023/03/10 05:49:56;;;;;;;10.18;4.65;;;2.40;99.90;;;;;;6128466;23;20056;-87
2023/03/10 05:52:21;;;;;;;9.88;4.28;;;2.40;99.90;;;;;;6127808;23;20013;-87
2023/03/10 05:54:47;;;;;;;11.07;5.18;;;2.40;99.90;;;;;;6150673;23;20477;-87
2023/03/10 05:57:13;;;;;;;11.32;5.00;;;2.40;99.90;;;;;;6153057;23;20029;-86
2023/03/10 05:59:38;;;;;;;9.73;4.00;;;2.40;99.90;;;;;;6151503;23;20025;-87
2023/03/10 06:02:04;;;;;;;10.27;4.90;;;2.40;99.90;;;;;;6151252;23;20067;-87
2023/03/10 06:04:32;;;;;;;10.77;4.28;;;2.40;99.90;;;;;;6151173;23;20017;-87
2023/03/10 06:06:59;;;;;;;11.75;4.40;;;2.40;99.90;;;;;;6151533;23;20021;-87
2023/03/10 06:09:26;;;;;;;11.13;4.15;;;2.40;99.90;;;;;;6151397;23;20350;-87
2023/03/10 06:11:52;;;;;;;10.40;4.53;;;2.40;99.90;;;;;;6152259;23;20049;-88
2023/03/10 06:14:17;;;;;;;10.88;4.70;;;2.40;99.90;;;;;;6152403;23;20357;-87
2023/03/10 06:16:49;;;;;;;9.88;4.15;;;2.40;99.90;;;;;;6152621;23;20013;-87
2023/03/10 06:19:16;;;;;;;10.57;5.07;;;2.40;99.90;;;;;;6127173;23;20018;-87
2023/03/10 06:21:41;;;;;;;10.20;5.05;;;2.40;99.90;;;;;;6152707;23;20279;-87
2023/03/10 06:24:07;;;;;;;11.75;5.50;;;2.40;99.90;;;;;;6127327;23;20018;-87
2023/03/10 06:26:33;;;;;;;11.65;5.53;;;2.40;99.90;;;;;;6127231;23;20065;-87
2023/03/10 06:28:58;;;;;;;11.55;4.80;;;2.40;99.90;;;;;;6151835;23;20072;-87
2023/03/10 06:31:24;;;;;;;11.15;5.10;;;2.40;99.90;;;;;;6127214;23;20018;-87
2023/03/10 06:33:51;;;;;;;11.52;4.50;;;2.40;99.90;;;;;;6127771;23;20025;-87
2023/03/10 06:36:17;;;;;;;11.73;5.25;;;2.40;99.90;;;;;;6127788;23;20402;-87
2023/03/10 06:38:43;;;;;;;11.98;5.10;;;2.40;99.90;;;;;;6151157;23;20021;-88
2023/03/10 06:41:09;;;;;;;9.95;4.47;;;2.40;99.90;;;;;;6152585;23;20014;-87
2023/03/10 06:43:35;;;;;;;10.55;5.25;;;2.40;99.90;;;;;;6126775;23;20017;-87
2023/03/10 06:46:06;;;;;;;11.88;4.93;;;2.50;99.90;;;;;;6126730;23;20020;-87
2023/03/10 06:48:32;;;;;;;11.15;5.05;;;2.50;99.90;;;;;;6151699;23;20009;-88
2023/03/10 06:50:58;;;;;;;9.70;4.18;;;2.50;99.90;;;;;;6151139;23;20457;-88
2023/03/10 06:53:24;;;;;;;10.80;5.18;;;2.50;99.90;;;;;;6152034;23;20024;-88
2023/03/10 06:56:18;;;;;;;13.07;5.22;;;2.50;99.90;;;;;;6126949;23;20559;-88
2023/03/10 06:58:44;;;;;;;11.73;5.50;;;2.50;99.90;;;;;;6096803;23;20018;-88
2023/03/10 07:01:23;;;;;;;11.35;5.18;;;2.60;99.90;;;;;;6096497;23;20022;-87
2023/03/10 07:03:49;;;;;;;10.57;4.43;;;2.60;99.90;;;;;;6096084;23;20022;-88
2023/03/10 07:06:14;;;;;;;11.23;5.50;;;2.60;99.90;;;;;;6095996;23;20021;-88
2023/03/10 07:08:40;;;;;;;10.90;5.32;;;2.60;99.90;;;;;;6096463;23;20014;-88
2023/03/10 07:11:05;;;;;;;12.00;6.03;;;2.60;99.90;;;;;;6096970;23;20018;-87
2023/03/10 07:13:31;;;;;;;11.82;5.65;;;2.60;99.90;;;;;;6096207;23;20410;-87
2023/03/10 07:15:56;;;;;;;12.35;5.20;;;2.60;99.90;;;;;;6096598;23;20018;-87
2023/03/10 07:18:26;;;;;;;11.18;5.47;;;2.70;99.90;;;;;;6095752;23;20018;-87
2023/03/10 07:20:53;;;;;;;12.65;5.82;;;2.70;99.90;;;;;;6096195;23;20053;-87
2023/03/10 07:23:19;;;;;;;12.43;6.28;;;2.70;99.90;;;;;;6096094;23;20022;-86
2023/03/10 07:25:45;;;;;;;11.80;6.38;;;2.70;99.90;;;;;;6094294;23;20028;-87
2023/03/10 07:28:11;;;;;;;13.45;6.72;;;2.70;99.90;;;;;;6095511;23;20013;-88
2023/03/10 07:30:38;;;;;;;13.95;6.75;;;2.70;99.90;;;;;;6095725;23;20077;-88
2023/03/10 07:33:04;;;;;;;13.18;6.65;;;2.70;99.90;;;;;;6096486;23;20446;-87
2023/03/10 07:35:29;;;;;;;13.98;6.35;;;2.70;99.90;;;;;;6121660;23;20117;-87
2023/03/10 07:37:55;;;;;;;12.35;6.47;;;2.80;99.90;;;;;;6125947;23;20013;-87
2023/03/10 07:40:23;;;;;;;14.13;7.15;;;2.80;99.90;;;;;;6150200;23;20025;-87
2023/03/10 07:42:53;;;;;;;13.50;6.57;;;2.80;99.90;;;;;;6126470;23;20124;-87
2023/03/10 07:45:20;;;;;;;11.85;5.82;;;2.80;99.90;;;;;;6149849;23;20330;-88
2023/03/10 07:47:45;;;;;;;14.68;7.53;;;2.80;99.90;;;;;;6150843;23;20013;-87
2023/03/10 07:50:11;;;;;;;13.95;7.18;;;2.70;99.90;;;;;;6126960;23;20010;-86
2023/03/10 07:52:37;;;;;;;13.40;6.72;;;2.80;99.90;;;;;;6151693;23;20009;-87
2023/03/10 07:55:04;;;;;;;15.77;8.15;;;2.80;99.90;;;;;;6151600;23;20032;-87
2023/03/10 07:57:29;;;;;;;15.45;8.40;;;2.80;99.90;;;;;;6150533;23;20021;-87
2023/03/10 07:59:55;;;;;;;15.80;7.63;;;2.80;99.90;;;;;;6151577;23;20087;-87
2023/03/10 08:02:20;;;;;;;16.58;8.48;;;2.80;99.90;;;;;;6151533;23;20013;-87
2023/03/10 08:04:46;;;;;;;15.65;8.00;;;2.80;99.90;;;;;;6126220;23;20528;-87
2023/03/10 08:07:12;;;;;;;15.85;7.78;;;2.80;99.90;;;;;;6150087;23;20017;-87
2023/03/10 08:09:37;;;;;;;14.30;7.07;;;2.80;99.90;;;;;;6150241;23;20092;-87
2023/03/10 08:12:03;;;;;;;15.65;8.10;;;2.80;99.90;;;;;;6126724;23;20013;-87
2023/03/10 08:14:30;;;;;;;16.33;8.85;;;2.90;99.90;;;;;;6125847;23;20017;-87
2023/03/10 08:16:56;;;;;;;15.75;7.63;;;2.90;99.90;;;;;;6126256;23;20028;-87
2023/03/10 08:19:24;;;;;;;16.08;7.72;;;2.90;99.90;;;;;;6151008;23;20017;-87
2023/03/10 08:21:50;;;;;;;15.73;8.48;;;2.90;99.90;;;;;;6150758;23;20025;-87
2023/03/10 08:24:16;;;;;;;15.90;9.18;;;2.90;99.90;;;;;;6126343;23;20010;-87
2023/03/10 08:26:42;;;;;;;17.05;9.05;;;2.90;99.90;;;;;;6125701;23;20009;-87
2023/03/10 08:29:07;;;;;;;15.27;8.15;;;2.90;99.90;;;;;;6149681;23;20045;-86
2023/03/10 08:31:33;;;;;;;15.25;7.90;;;3.00;99.90;;;;;;6129245;23;20471;-87
2023/03/10 08:33:58;;;;;;;17.50;8.32;;;3.00;99.90;;;;;;6128229;23;20025;-87
2023/03/10 08:36:28;;;;;;;17.02;8.70;;;3.00;99.90;;;;;;6128997;23;20040;-86
2023/03/10 08:38:55;;;;;;;14.63;7.45;;;3.00;99.90;;;;;;6128405;23;20040;-87
2023/03/10 08:41:24;;;;;;;15.73;7.53;;;3.00;99.90;;;;;;6128430;23;20045;-87
2023/03/10 08:43:52;;;;;;;15.38;8.13;;;3.00;99.90;;;;;;6128454;23;20048;-86
2023/03/10 08:46:19;;;;;;;15.35;8.05;;;3.10;99.90;;;;;;6127832;23;20014;-88
2023/03/10 08:48:45;;;;;;;15.57;8.15;;;3.10;99.90;;;;;;6152211;23;20020;-87
2023/03/10 08:51:11;;;;;;;16.00;8.23;;;3.10;99.90;;;;;;6127649;23;20044;-87
2023/03/10 08:53:38;;;;;;;16.85;8.68;;;3.10;99.90;;;;;;6127853;23;20492;-87
2023/03/10 08:56:05;;;;;;;15.23;8.10;;;3.10;99.90;;;;;;6126988;23;20009;-87
2023/03/10 08:58:31;;;;;;;15.68;8.23;;;3.10;99.90;;;;;;6127301;23;20013;-88
2023/03/10 09:00:57;;;;;;;16.95;9.38;;;3.20;99.90;;;;;;6128696;23;20014;-87
2023/03/10 09:03:23;;;;;;;16.30;8.07;;;3.20;99.90;;;;;;6127695;23;20092;-87
2023/03/10 09:05:48;;;;;;;14.50;7.80;;;3.20;99.90;;;;;;6127570;23;20013;-87
2023/03/10 09:08:14;;;;;;;15.82;8.30;;;3.20;99.90;;;;;;6151685;23;20017;-86
2023/03/10 09:10:43;;;;;;;16.20;8.57;;;3.20;99.90;;;;;;6125712;23;20017;-88
2023/03/10 09:13:09;;;;;;;15.32;8.07;;;3.20;99.90;;;;;;6151406;23;20029;-88
2023/03/10 09:15:39;;;;;;;15.02;7.38;;;3.20;99.90;;;;;;6125803;23;20025;-87
2023/03/10 09:18:07;;;;;;;14.90;7.60;;;3.20;99.90;;;;;;6126564;23;20021;-87
2023/03/10 09:20:33;;;;;;;14.45;8.27;;;3.20;99.90;;;;;;6129455;23;20028;-88
2023/03/10 09:22:58;;;;;;;16.27;8.05;;;3.20;99.90;;;;;;6153598;23;20010;-87
2023/03/10 09:25:24;;;;;;;16.17;8.50;;;3.20;99.90;;;;;;6153616;23;20026;-88
2023/03/10 09:27:50;;;;;;;13.82;7.45;;;3.20;99.90;;;;;;6130164;23;20017;-88
2023/03/10 09:30:16;;;;;;;16.65;8.25;;;3.20;99.90;;;;;;6129696;23;20040;-88
2023/03/10 09:32:43;;;;;;;15.38;8.73;;;3.20;99.90;;;;;;6154733;23;20329;-88
2023/03/10 09:35:10;;;;;;;16.45;8.90;;;3.30;99.90;;;;;;6128939;23;20017;-89
2023/03/10 09:37:36;;;;;;;15.65;7.97;;;3.30;99.90;;;;;;6153520;23;20465;-88
2023/03/10 09:40:04;;;;;;;16.17;7.78;;;3.30;99.90;;;;;;6124947;23;20116;-88
2023/03/10 09:42:40;;;;;;;17.85;8.10;;;3.30;99.90;;;;;;6151709;23;20026;-88
2023/03/10 09:45:25;;;;;;;13.30;6.50;;;3.30;99.90;;;;;;6126735;23;20022;-88
2023/03/10 09:48:06;;;;;;;15.10;8.85;;;3.30;99.90;;;;;;6152189;23;20082;-87
2023/03/10 09:50:51;;;;;;;15.32;8.35;;;3.30;99.90;;;;;;6128431;23;20064;-87
2023/03/10 09:53:34;;;;;;;14.63;8.10;;;3.30;99.90;;;;;;6127782;23;20449;-86
2023/03/10 09:56:03;;;;;;;14.60;7.88;;;3.20;99.90;;;;;;6128476;23;20025;-87
2023/03/10 09:58:38;;;;;;;16.35;8.00;;;3.20;99.90;;;;;;6151429;23;20022;-87
2023/03/10 10:01:05;;;;;;;14.98;8.05;;;3.20;99.90;;;;;;6152271;23;20028;-88
2023/03/10 10:03:41;;;;;;;16.20;8.40;;;3.20;99.90;;;;;;6152704;23;20020;-87
2023/03/10 10:06:13;;;;;;;15.55;8.70;;;3.20;99.90;;;;;;6127969;23;20025;-87
2023/03/10 10:08:49;;;;;;;13.77;7.47;;;3.20;99.90;;;;;;6127740;23;20049;-88
2023/03/10 10:11:16;;;;;;;15.48;7.80;;;3.20;99.90;;;;;;6127292;23;20017;-88
2023/03/10 10:13:42;;;;;;;15.45;7.10;;;3.20;99.90;;;;;;6152965;23;20014;-88
2023/03/10 10:16:30;;;;;;;15.60;8.60;;;3.30;99.90;;;;;;6152324;23;20036;-87
2023/03/10 10:19:16;;;;;;;15.50;8.27;;;3.30;99.90;;;;;;6127401;23;20065;-88
2023/03/10 10:21:46;;;;;;;14.90;8.02;;;3.30;99.90;;;;;;6127070;23;20023;-88
2023/03/10 10:24:12;;;;;;;14.27;7.45;;;3.30;99.90;;;;;;6151245;23;20014;-88
2023/03/10 10:26:38;;;;;;;16.33;8.13;;;3.30;99.90;;;;;;6152394;23;20049;-88
2023/03/10 10:29:23;;;;;;;14.90;8.18;;;3.30;99.90;;;;;;6127276;23;20020;-88
2023/03/10 10:32:10;;;;;;;14.50;8.00;;;3.30;99.90;;;;;;6152367;23;20090;-88
2023/03/10 10:34:38;;;;;;;15.18;8.40;;;3.20;99.90;;;;;;6151734;23;20029;-87
2023/03/10 10:37:41;;;;;;;15.48;8.10;;;3.20;99.90;;;;;;6152299;23;20473;-88
2023/03/10 10:40:27;;;;;;;15.52;7.45;;;3.20;99.90;;;;;;6152208;23;20590;-88
2023/03/10 10:42:59;;;;;;;18.75;9.10;;;3.20;99.90;;;;;;6126888;23;20353;-88
2023/03/10 10:45:38;;;;;;;16.30;8.73;;;3.20;99.90;;;;;;6127090;23;20021;-88
2023/03/10 10:48:04;;;;;;;18.80;9.30;;;3.20;99.90;;;;;;6151616;23;20088;-88
2023/03/10 10:50:32;;;;;;;17.98;8.95;;;3.20;99.90;;;;;;6151225;23;20017;-88
2023/03/10 10:53:23;;;;;;;16.63;8.75;;;3.20;99.90;;;;;;6127422;23;20034;-88
2023/03/10 10:56:13;;;;;;;16.63;8.88;;;3.20;99.90;;;;;;6152398;23;20017;-88
2023/03/10 10:58:40;;;;;;;16.20;8.55;;;3.20;99.90;;;;;;6117685;23;20024;-88
2023/03/10 11:01:14;;;;;;;16.42;9.63;;;3.20;99.90;;;;;;6126551;23;20025;-88
2023/03/10 11:03:49;;;;;;;16.42;8.73;;;3.20;99.90;;;;;;6127059;23;20048;-88
2023/03/10 11:06:20;;;;;;;18.95;9.25;;;3.20;99.90;;;;;;6126592;23;20018;-88
2023/03/10 11:08:49;;;;;;;18.75;9.93;;;3.20;99.90;;;;;;6126977;23;20025;-88
2023/03/10 11:11:28;;;;;;;15.65;8.65;;;3.20;99.90;;;;;;6151663;23;20009;-88
2023/03/10 11:14:12;;;;;;;17.08;9.90;;;3.20;99.90;;;;;;6151766;23;20010;-88
2023/03/10 11:16:54;;;;;;;16.85;8.98;;;3.20;99.90;;;;;;6151835;23;20118;-87
2023/03/10 11:19:40;;;;;;;16.27;8.90;;;3.20;99.90;;;;;;6151624;23;20020;-89
2023/03/10 11:22:25;;;;;;;16.58;9.35;;;3.20;99.90;;;;;;6126652;23;20477;-89
2023/03/10 11:25:11;;;;;;;18.67;9.77;;;3.20;99.90;;;;;;6151876;23;20021;-88
2023/03/10 11:27:43;;;;;;;17.10;8.38;;;3.20;99.90;;;;;;6151521;23;20389;-88
2023/03/10 11:30:16;;;;;;;15.80;8.80;;;3.20;99.90;;;;;;6127082;23;20018;-88
2023/03/10 11:32:55;;;;;;;17.13;9.82;;;3.20;99.90;;;;;;6152073;23;20092;-88
2023/03/10 11:35:27;;;;;;;15.70;8.63;;;3.20;99.90;;;;;;6150944;23;20017;-88
2023/03/10 11:38:13;;;;;;;17.67;9.15;;;3.20;99.90;;;;;;6151717;23;20025;-88
2023/03/10 11:40:53;;;;;;;16.83;9.15;;;3.20;99.90;;;;;;6127285;23;20032;-88
2023/03/10 11:43:34;;;;;;;16.88;8.43;;;3.20;99.90;;;;;;6127031;23;20457;-88
2023/03/10 11:46:12;;;;;;;15.32;8.63;;;3.20;99.90;;;;;;6151819;23;20028;-88
2023/03/10 11:49:06;;;;;;;14.35;7.75;;;3.20;99.90;;;;;;6150097;23;20017;-87
2023/03/10 11:51:38;;;;;;;15.25;7.65;;;3.30;99.90;;;;;;6151676;23;20148;-89
2023/03/10 11:54:24;;;;;;;19.45;9.70;;;3.30;99.90;;;;;;6151521;23;20121;-88
2023/03/10 11:56:51;;;;;;;14.77;7.82;;;3.30;99.90;;;;;;6152115;23;20017;-89
2023/03/10 11:59:26;;;;;;;17.25;9.07;;;3.30;99.90;;;;;;6151412;23;20024;-88
2023/03/10 12:01:57;;;;;;;17.20;9.25;;;3.40;99.90;;;;;;6151168;23;20018;-89
2023/03/10 12:04:36;;;;;;;17.98;9.43;;;3.40;99.90;;;;;;6151253;23;20462;-89
2023/03/10 12:07:21;;;;;;;15.68;7.70;;;3.50;99.90;;;;;;6127092;23;20017;-88
2023/03/10 12:10:03;;;;;;;15.10;8.23;;;3.50;99.90;;;;;;6151947;23;20024;-88
2023/03/10 12:12:35;;;;;;;14.68;8.10;;;3.50;99.90;;;;;;6151549;23;20006;-88
2023/03/10 12:15:10;;;;;;;16.23;8.52;;;3.50;99.90;;;;;;6152289;23;20101;-88
2023/03/10 12:17:37;;;;;;;14.80;7.82;;;3.50;99.90;;;;;;6150730;23;20049;-89
2023/03/10 12:20:30;;;;;;;15.18;9.23;;;3.50;99.90;;;;;;6152006;23;20022;-88
2023/03/10 12:22:58;;;;;;;14.77;7.57;;;3.50;99.90;;;;;;6120605;23;20053;-88
2023/03/10 12:25:26;;;;;;;15.68;8.50;;;3.50;99.90;;;;;;6149397;23;20088;-88
2023/03/10 12:28:25;;;;;;;15.07;8.32;;;3.50;99.90;;;;;;6151047;23;20064;-88
2023/03/10 12:31:01;;;;;;;15.55;8.23;;;3.50;99.90;;;;;;6150906;23;20453;-89
2023/03/10 12:33:30;;;;;;;15.20;7.97;;;3.50;99.90;;;;;;6126411;23;20067;-89
2023/03/10 12:36:23;;;;;;;14.70;8.00;;;3.50;99.90;;;;;;6150548;23;20018;-89
2023/03/10 12:38:59;;;;;;;15.63;8.70;;;3.50;99.90;;;;;;6151150;23;20025;-88
2023/03/10 12:41:25;;;;;;;15.15;7.95;;;3.50;99.90;;;;;;6128294;23;20021;-88
2023/03/10 12:44:33;;;;;;;13.57;7.18;;;3.40;99.90;;;;;;6127728;23;20021;-89
2023/03/10 12:47:12;;;;;;;16.27;9.18;;;3.40;99.90;;;;;;6152815;23;20026;-88
2023/03/10 12:49:40;;;;;;;17.60;8.85;;;3.40;99.90;;;;;;6151510;23;20013;-88
2023/03/10 12:52:09;;;;;;;16.95;8.23;;;3.40;99.90;;;;;;6127714;23;20487;-88
2023/03/10 12:55:13;;;;;;;16.85;8.60;;;3.30;99.90;;;;;;6127517;23;20465;-88
2023/03/10 12:57:43;;;;;;;;;;;3.30;99.90;;;;;;6127714;23;20024;-89
2023/03/10 13:00:40;;;;;;;16.35;8.95;;;3.20;99.90;;;;;;6127418;23;19912;-88